createdAt,value
2019-06-27T00:00:51.896Z,21.02
2019-06-27T00:05:55.478Z,21.25
2019-06-27T00:10:58.939Z,21.27
2019-06-27T00:16:02.362Z,21.20
2019-06-27T00:21:05.804Z,20.41
2019-06-27T00:26:09.222Z,20.41
2019-06-27T00:31:12.663Z,20.29
2019-06-27T00:36:16.099Z,20.15
2019-06-27T00:41:19.736Z,20.15
2019-06-27T00:46:23.160Z,19.65
2019-06-27T00:51:26.581Z,19.94
2019-06-27T00:56:29.995Z,19.71
2019-06-27T01:01:33.403Z,19.98
2019-06-27T01:06:37.475Z,20.33
2019-06-27T01:11:40.824Z,20.35
2019-06-27T01:16:44.315Z,20.09
2019-06-27T01:21:47.733Z,19.86
2019-06-27T01:26:51.177Z,19.89
2019-06-27T01:31:54.590Z,19.92
2019-06-27T01:36:58.016Z,20.03
2019-06-27T01:42:01.514Z,19.71
2019-06-27T01:47:06.181Z,19.34
2019-06-27T01:52:09.689Z,19.38
2019-06-27T01:57:13.113Z,18.99
2019-06-27T02:02:16.671Z,19.34
2019-06-27T02:07:20.096Z,19.45
2019-06-27T02:12:23.536Z,19.35
2019-06-27T02:17:26.964Z,19.30
2019-06-27T02:22:30.395Z,19.62
2019-06-27T02:27:33.820Z,19.89
2019-06-27T02:32:37.239Z,19.99
2019-06-27T02:37:40.659Z,20.06
2019-06-27T02:42:44.085Z,19.93
2019-06-27T02:47:47.505Z,19.96
2019-06-27T02:52:50.907Z,19.90
2019-06-27T02:57:54.400Z,19.78
2019-06-27T03:02:57.947Z,19.70
2019-06-27T03:08:01.641Z,19.62
2019-06-27T03:13:05.166Z,19.85
2019-06-27T03:18:08.600Z,19.59
2019-06-27T03:23:12.016Z,19.58
2019-06-27T03:28:15.418Z,19.56
2019-06-27T03:33:18.863Z,19.61
2019-06-27T03:38:22.289Z,19.60
2019-06-27T03:43:25.728Z,19.60
2019-06-27T03:48:29.153Z,19.70
2019-06-27T03:53:32.601Z,19.70
2019-06-27T03:58:36.023Z,19.58
2019-06-27T04:03:42.802Z,19.54
2019-06-27T04:08:44.579Z,19.63
2019-06-27T04:13:48.838Z,19.62
2019-06-27T04:18:52.291Z,19.40
2019-06-27T04:23:55.697Z,19.36
2019-06-27T04:28:59.370Z,19.41
2019-06-27T04:34:02.787Z,18.69
2019-06-27T04:39:06.297Z,18.29
2019-06-27T04:44:09.722Z,18.39
2019-06-27T04:49:14.058Z,18.29
2019-06-27T04:54:17.645Z,18.18
2019-06-27T04:59:21.090Z,17.58
2019-06-27T05:04:24.511Z,18.23
2019-06-27T05:09:27.956Z,18.19
2019-06-27T05:14:32.653Z,18.57
2019-06-27T05:19:37.625Z,18.33
2019-06-27T05:24:41.038Z,18.02
2019-06-27T05:29:44.464Z,17.58
2019-06-27T05:34:47.907Z,17.78
2019-06-27T05:39:51.342Z,17.61
2019-06-27T05:44:54.743Z,17.74
2019-06-27T05:49:58.156Z,17.81
2019-06-27T05:55:01.751Z,17.98
2019-06-27T06:00:07.377Z,18.11
2019-06-27T06:05:10.861Z,18.05
2019-06-27T06:10:14.517Z,18.17
2019-06-27T06:15:19.629Z,18.35
2019-06-27T06:20:23.238Z,18.70
2019-06-27T06:25:26.680Z,19.13
2019-06-27T06:30:43.719Z,18.34
2019-06-27T06:35:35.423Z,18.45
2019-06-27T06:40:38.843Z,18.89
2019-06-27T06:45:42.271Z,18.62
2019-06-27T06:50:45.703Z,18.96
2019-06-27T06:55:49.116Z,19.32
2019-06-27T07:01:01.639Z,19.71
2019-06-27T07:05:57.741Z,19.83
2019-06-27T07:11:01.248Z,19.91
2019-06-27T07:16:05.004Z,20.13
2019-06-27T07:21:09.632Z,20.79
2019-06-27T07:26:13.146Z,21.21
2019-06-27T07:31:18.302Z,20.96
2019-06-27T07:36:21.867Z,20.64
2019-06-27T07:41:25.289Z,21.71
2019-06-27T07:46:29.031Z,21.80
2019-06-27T07:51:32.465Z,22.41
2019-06-27T07:56:35.939Z,21.99
2019-06-27T08:01:39.369Z,21.73
2019-06-27T08:06:42.825Z,22.69
2019-06-27T08:11:46.219Z,21.90
2019-06-27T08:16:49.655Z,23.16
2019-06-27T08:21:53.107Z,22.96
2019-06-27T08:26:56.598Z,23.27
2019-06-27T08:32:00.057Z,24.28
2019-06-27T08:37:03.755Z,24.66
2019-06-27T08:42:07.171Z,25.38
2019-06-27T08:47:10.680Z,25.39
2019-06-27T08:52:14.126Z,25.57
2019-06-27T08:57:17.562Z,25.58
2019-06-27T09:02:20.995Z,24.53
2019-06-27T09:07:24.533Z,25.31
2019-06-27T09:12:28.014Z,25.92
2019-06-27T09:17:31.455Z,26.29
2019-06-27T09:22:34.891Z,26.40
2019-06-27T09:27:39.223Z,26.26
2019-06-27T09:32:42.678Z,26.54
2019-06-27T09:37:46.110Z,27.25
2019-06-27T09:42:49.606Z,27.70
2019-06-27T09:47:53.123Z,27.88
2019-06-27T09:52:56.543Z,27.86
2019-06-27T09:57:59.967Z,27.49
2019-06-27T10:03:03.412Z,26.98
2019-06-27T10:08:06.890Z,28.16
2019-06-27T10:13:10.346Z,27.97
2019-06-27T10:18:13.755Z,28.19
2019-06-27T10:23:17.170Z,28.93
2019-06-27T10:28:20.608Z,28.31
2019-06-27T10:33:24.029Z,28.52
2019-06-27T10:38:27.468Z,28.83
2019-06-27T10:43:30.885Z,29.87
2019-06-27T10:48:34.317Z,29.80
2019-06-27T10:53:37.754Z,29.92
2019-06-27T10:58:41.165Z,29.75
2019-06-27T11:03:44.615Z,29.89
2019-06-27T11:08:48.023Z,31.35
2019-06-27T11:13:58.651Z,30.57
2019-06-27T11:18:56.616Z,30.12
2019-06-27T11:24:00.022Z,30.52
2019-06-27T11:29:03.433Z,30.86
2019-06-27T11:34:06.870Z,30.92
2019-06-27T11:39:10.290Z,31.68
2019-06-27T11:44:13.715Z,32.29
2019-06-27T11:49:17.127Z,32.51
2019-06-27T11:54:20.546Z,33.29
2019-06-27T11:59:23.974Z,33.73
2019-06-27T12:04:27.387Z,33.79
2019-06-27T12:09:30.845Z,32.93
2019-06-27T12:14:34.297Z,31.55
2019-06-27T12:19:37.725Z,30.82
2019-06-27T12:24:41.605Z,32.38
2019-06-27T12:29:45.041Z,32.58
2019-06-27T12:34:49.414Z,31.68
2019-06-27T12:39:52.915Z,32.85
2019-06-27T12:44:56.344Z,32.23
2019-06-27T12:50:02.539Z,31.80
2019-06-27T12:55:05.876Z,32.46
2019-06-27T13:00:10.167Z,31.96
2019-06-27T13:05:13.778Z,32.63
2019-06-27T13:10:18.391Z,32.30
2019-06-27T13:15:21.959Z,32.99
2019-06-27T13:20:25.509Z,33.95
2019-06-27T13:25:28.920Z,34.61
2019-06-27T13:30:32.501Z,35.31
2019-06-27T13:35:35.919Z,35.26
2019-06-27T13:40:39.360Z,35.18
2019-06-27T13:45:42.774Z,32.80
2019-06-27T13:50:46.206Z,34.06
2019-06-27T13:55:49.630Z,34.33
2019-06-27T14:00:53.076Z,34.16
2019-06-27T14:05:56.498Z,33.46
2019-06-27T14:10:59.933Z,33.54
2019-06-27T14:16:05.805Z,33.36
2019-06-27T14:21:08.509Z,34.55
2019-06-27T14:26:11.935Z,33.57
2019-06-27T14:31:15.440Z,32.99
2019-06-27T14:36:18.853Z,32.56
2019-06-27T14:41:22.264Z,32.95
2019-06-27T14:46:25.791Z,32.02
2019-06-27T14:51:29.219Z,31.98
2019-06-27T14:56:32.728Z,33.02
2019-06-27T15:01:36.135Z,32.53
2019-06-27T15:06:39.585Z,31.79
2019-06-27T15:11:43.016Z,32.62
2019-06-27T15:16:46.451Z,33.24
2019-06-27T15:21:49.902Z,33.28
2019-06-27T15:26:53.312Z,33.14
2019-06-27T15:31:56.750Z,31.50
2019-06-27T15:37:00.178Z,31.54
2019-06-27T15:42:03.627Z,31.73
2019-06-27T15:47:07.123Z,31.80
2019-06-27T15:52:10.564Z,32.42
2019-06-27T15:57:14.078Z,32.85
2019-06-27T16:02:17.506Z,32.31
2019-06-27T16:07:20.927Z,32.66
2019-06-27T16:12:24.603Z,32.94
2019-06-27T16:17:28.036Z,32.55
2019-06-27T16:22:31.551Z,32.73
2019-06-27T16:27:34.970Z,31.78
2019-06-27T16:32:38.400Z,31.17
2019-06-27T16:37:41.910Z,30.06
2019-06-27T16:42:45.340Z,28.88
2019-06-27T16:47:48.762Z,28.40
2019-06-27T16:52:52.217Z,28.72
2019-06-27T16:57:55.638Z,28.33
2019-06-27T17:02:59.074Z,28.79
2019-06-27T17:08:02.556Z,28.19
2019-06-27T17:13:05.965Z,27.57
2019-06-27T17:18:09.382Z,27.32
2019-06-27T17:23:12.815Z,26.84
2019-06-27T17:28:16.254Z,26.63
2019-06-27T17:33:19.657Z,26.45
2019-06-27T17:38:23.092Z,26.45
2019-06-27T17:43:26.531Z,25.59
2019-06-27T17:48:29.969Z,24.93
2019-06-27T17:53:33.409Z,24.71
2019-06-27T17:58:36.864Z,24.65
2019-06-27T18:03:40.311Z,24.17
2019-06-27T18:08:43.730Z,24.34
2019-06-27T18:13:47.264Z,24.35
2019-06-27T18:18:51.153Z,24.06
2019-06-27T18:23:54.736Z,23.88
2019-06-27T18:28:58.171Z,23.93
2019-06-27T18:34:01.591Z,23.77
2019-06-27T18:39:06.157Z,23.65
2019-06-27T18:44:09.583Z,23.60
2019-06-27T18:49:13.025Z,23.68
2019-06-27T18:54:16.448Z,23.34
2019-06-27T18:59:19.905Z,23.16
2019-06-27T19:04:23.343Z,23.09
2019-06-27T19:09:26.783Z,23.01
2019-06-27T19:14:30.214Z,22.95
2019-06-27T19:19:35.279Z,22.73
2019-06-27T19:24:49.608Z,22.53
2019-06-27T19:29:53.047Z,22.38
2019-06-27T19:34:56.472Z,22.28
2019-06-27T19:39:59.927Z,22.24
2019-06-27T19:45:03.991Z,22.17
2019-06-27T19:50:07.510Z,22.18
2019-06-27T19:55:11.546Z,21.83
2019-06-27T20:00:17.294Z,21.66
2019-06-27T20:05:20.800Z,21.49
2019-06-27T20:10:24.313Z,21.36
2019-06-27T20:15:27.771Z,21.42
2019-06-27T20:20:31.191Z,21.32
2019-06-27T20:25:34.594Z,21.04
2019-06-27T20:30:38.020Z,20.75
2019-06-27T20:35:41.995Z,20.76
2019-06-27T20:40:45.455Z,20.77
2019-06-27T20:45:49.081Z,20.72
2019-06-27T20:50:53.006Z,20.50
2019-06-27T20:55:56.448Z,20.08
2019-06-27T21:00:59.944Z,20.00
2019-06-27T21:06:03.427Z,20.03
2019-06-27T21:11:06.896Z,20.05
2019-06-27T21:16:10.336Z,19.98
2019-06-27T21:21:13.855Z,19.95
2019-06-27T21:26:18.425Z,19.72
2019-06-27T21:31:21.869Z,19.57
2019-06-27T21:36:25.275Z,19.46
2019-06-27T21:41:28.722Z,19.42
2019-06-27T21:46:32.143Z,19.47
2019-06-27T21:51:35.570Z,19.41
2019-06-27T21:56:38.983Z,19.25
2019-06-27T22:01:42.477Z,19.14
2019-06-27T22:06:45.928Z,18.90
2019-06-27T22:11:49.375Z,18.97
2019-06-27T22:16:52.800Z,18.92
2019-06-27T22:21:56.210Z,18.94
2019-06-27T22:26:59.731Z,18.97
2019-06-27T22:32:03.265Z,18.69
2019-06-27T22:37:07.223Z,18.43
2019-06-27T22:42:28.513Z,18.42
2019-06-27T22:47:50.762Z,18.22
2019-06-27T22:53:10.726Z,18.02
2019-06-27T22:58:14.193Z,17.80
2019-06-27T23:03:17.635Z,17.62
2019-06-27T23:08:21.158Z,17.82
2019-06-27T23:13:24.596Z,17.76
2019-06-27T23:18:28.131Z,17.66
2019-06-27T23:23:31.604Z,17.64
2019-06-27T23:28:35.009Z,17.35
2019-06-27T23:33:38.422Z,17.23
2019-06-27T23:38:41.841Z,17.31
2019-06-27T23:43:45.282Z,17.36
2019-06-27T23:48:48.718Z,17.08
2019-06-27T23:53:52.161Z,16.81
2019-06-27T23:58:55.618Z,16.85
